createdAt,value
2022-09-05T09:49:23.774Z,23.30
2022-09-05T09:55:54.324Z,23.50
2022-09-05T09:58:55.458Z,24.10
2022-09-05T10:01:39.375Z,23.70
2022-09-05T10:10:34.106Z,23.80
2022-09-05T10:10:49.409Z,24.10
2022-09-05T10:14:56.942Z,24.60
2022-09-05T10:17:45.938Z,24.50
2022-09-05T10:20:32.897Z,24.70
2022-09-05T10:23:49.605Z,24.50
2022-09-05T10:26:47.345Z,24.50
2022-09-05T10:29:56.436Z,24.80
2022-09-05T10:35:10.679Z,25.20
2022-09-05T10:41:09.666Z,25.80
2022-09-05T10:43:56.144Z,25.70
2022-09-05T10:46:50.793Z,25.70
2022-09-05T10:49:34.006Z,25.80
2022-09-05T10:52:44.587Z,26.00
2022-09-05T10:55:32.736Z,26.00
2022-09-05T10:58:11.191Z,26.20
2022-09-05T11:02:27.906Z,26.10
2022-09-05T11:06:39.382Z,26.40
2022-09-05T11:09:16.392Z,26.40
2022-09-05T11:14:49.483Z,26.20
2022-09-05T11:17:19.011Z,26.20
2022-09-05T11:19:55.974Z,26.20
2022-09-05T11:22:27.156Z,25.80
2022-09-05T11:25:06.724Z,25.90
2022-09-05T11:27:48.170Z,26.20
2022-09-05T11:30:28.456Z,26.20
2022-09-05T11:39:58.552Z,26.20
2022-09-05T11:39:59.857Z,26.10
2022-09-05T11:42:27.825Z,25.70
2022-09-05T11:45:10.304Z,25.70
2022-09-05T11:48:15.195Z,26.10
2022-09-05T11:51:06.755Z,26.30
2022-09-05T11:53:46.013Z,26.20
2022-09-05T11:56:12.964Z,26.30
2022-09-05T11:59:05.103Z,26.50
2022-09-05T12:02:16.621Z,26.40
2022-09-05T12:05:48.701Z,26.60
2022-09-05T12:08:14.715Z,26.80
2022-09-05T12:11:10.420Z,26.00
2022-09-05T12:13:40.472Z,25.90
2022-09-05T12:16:26.904Z,25.30
2022-09-05T12:19:18.684Z,25.40
2022-09-05T12:22:18.601Z,25.70
2022-09-05T12:25:27.199Z,25.80
2022-09-05T12:29:26.305Z,25.90
2022-09-05T12:32:50.261Z,25.90
2022-09-05T12:36:04.421Z,25.50
2022-09-05T12:39:56.030Z,25.40
2022-09-05T12:40:57.093Z,25.50
2022-09-05T12:43:14.389Z,25.60
2022-09-05T12:45:56.494Z,25.60
2022-09-05T12:48:38.350Z,25.60
2022-09-05T12:51:46.447Z,25.90
2022-09-05T12:54:32.550Z,26.10
2022-09-05T13:02:48.695Z,26.00
2022-09-05T13:03:03.635Z,25.80
2022-09-05T13:03:37.994Z,25.70
2022-09-05T13:06:09.734Z,25.60
2022-09-05T13:08:59.400Z,25.60
2022-09-05T13:14:49.893Z,25.40
2022-09-05T13:14:53.191Z,25.50
2022-09-05T13:17:14.019Z,25.80
2022-09-05T13:19:51.437Z,26.30
2022-09-05T13:22:22.730Z,26.60
2022-09-05T13:25:04.463Z,26.70
2022-09-05T13:27:39.484Z,27.00
2022-09-05T13:33:41.540Z,26.70
2022-09-05T13:38:02.790Z,26.80
2022-09-05T13:38:20.017Z,27.00
2022-09-05T13:39:12.221Z,27.20
2022-09-05T13:41:51.050Z,27.30
2022-09-05T13:44:27.049Z,26.60
2022-09-05T13:47:30.255Z,26.20
2022-09-05T13:50:24.392Z,26.20
2022-09-05T13:53:29.426Z,26.70
2022-09-05T13:56:25.242Z,26.80
2022-09-05T13:58:59.941Z,26.70
2022-09-05T14:02:02.987Z,26.50
2022-09-05T14:05:19.618Z,26.30
2022-09-05T14:08:19.502Z,25.60
2022-09-05T14:10:49.251Z,25.40
2022-09-05T14:13:24.266Z,25.30
2022-09-05T14:15:52.678Z,25.20
2022-09-05T14:18:27.892Z,25.40
2022-09-05T14:21:17.927Z,25.60
2022-09-05T14:24:27.463Z,26.00
2022-09-05T14:26:58.404Z,26.10
2022-09-05T14:29:33.100Z,26.20
2022-09-05T14:37:45.331Z,26.10
2022-09-05T14:37:49.293Z,26.20
2022-09-05T14:38:49.071Z,26.20
2022-09-05T14:41:36.343Z,26.10
2022-09-05T14:44:06.133Z,25.70
2022-09-05T14:46:45.136Z,25.40
2022-09-05T14:49:34.982Z,25.10
2022-09-05T14:52:25.702Z,25.00
2022-09-05T15:02:45.421Z,25.10
2022-09-05T15:02:53.849Z,25.40
2022-09-05T15:06:35.681Z,25.50
2022-09-05T15:11:50.696Z,25.70
2022-09-05T15:12:27.777Z,25.80
2022-09-05T15:14:45.158Z,25.90
2022-09-05T15:17:22.658Z,25.60
2022-09-05T15:20:06.218Z,25.60
2022-09-05T15:22:37.955Z,25.60
2022-09-05T15:25:18.610Z,25.50
2022-09-05T15:27:47.148Z,25.50
2022-09-05T15:30:19.680Z,25.60
2022-09-05T15:32:50.636Z,25.60
2022-09-05T15:35:35.320Z,25.30
2022-09-05T15:38:21.485Z,25.30
2022-09-05T15:41:12.173Z,25.50
2022-09-05T15:43:59.963Z,25.70
2022-09-05T15:46:49.485Z,25.80
2022-09-05T15:49:32.859Z,25.80
2022-09-05T15:52:09.595Z,25.80
2022-09-05T15:54:49.521Z,25.90
2022-09-05T15:57:28.972Z,25.70
2022-09-05T16:00:02.095Z,25.40
2022-09-05T16:02:38.116Z,25.10
2022-09-05T16:10:31.698Z,25.10
2022-09-05T16:10:46.538Z,25.20
2022-09-05T16:12:00.388Z,24.90
2022-09-05T16:14:27.123Z,25.20
2022-09-05T16:23:18.845Z,25.10
2022-09-05T16:23:24.301Z,25.00
2022-09-05T16:23:32.673Z,25.00
2022-09-05T16:26:11.193Z,25.00
2022-09-05T16:29:28.323Z,24.80
2022-09-05T16:32:02.216Z,24.70
2022-09-05T16:34:55.842Z,24.80
2022-09-05T16:37:43.576Z,24.80
2022-09-05T16:40:34.680Z,25.00
2022-09-05T16:43:16.247Z,25.20
2022-09-05T16:46:27.202Z,25.30
2022-09-05T16:49:19.294Z,25.30
2022-09-05T16:52:17.145Z,25.30
2022-09-05T16:55:03.393Z,25.30
2022-09-05T16:57:34.342Z,25.10
2022-09-05T17:00:04.070Z,25.10
2022-09-05T17:02:44.200Z,24.80
2022-09-05T17:05:37.494Z,24.30
2022-09-05T17:08:15.396Z,23.70
2022-09-05T17:11:13.750Z,23.40
2022-09-05T17:14:05.249Z,23.30
2022-09-05T17:16:38.015Z,23.00
2022-09-05T17:19:14.987Z,22.70
2022-09-05T17:23:02.821Z,22.70
2022-09-05T17:29:24.356Z,22.70
2022-09-05T17:29:46.854Z,22.50
2022-09-05T17:33:43.444Z,22.30
2022-09-05T17:36:40.895Z,22.10
2022-09-05T17:39:14.959Z,21.90
2022-09-05T17:41:50.799Z,21.60
2022-09-05T17:44:32.333Z,21.50
2022-09-05T17:47:15.331Z,21.40
2022-09-05T17:49:45.376Z,21.20
2022-09-05T17:52:22.919Z,21.10
2022-09-05T17:54:52.563Z,20.80
2022-09-05T17:57:37.351Z,20.50
2022-09-05T18:00:42.652Z,20.30
2022-09-05T18:03:09.433Z,20.10
2022-09-05T18:05:54.613Z,20.00
2022-09-05T18:08:44.968Z,19.80
2022-09-05T18:11:36.669Z,19.60
2022-09-05T18:14:29.151Z,19.40
2022-09-05T18:17:36.777Z,19.30
2022-09-05T18:19:46.389Z,19.20
2022-09-05T18:26:27.129Z,19.00
2022-09-05T18:29:06.120Z,18.80
2022-09-05T18:31:41.955Z,18.80
2022-09-05T18:41:45.030Z,18.40
2022-09-05T18:44:20.334Z,18.30
